Time;durP1;ratioP1;P1;durP2;ratioP2;P2;SDS_P1;SDS_P2;PMS_P1;PMS_P2;Temp;Humidity;BMP_temperature;BMP_pressure;BME280_temperature;BME280_humidity;BME280_pressure;Samples;Min_cycle;Max_cycle;Signal;HPM_P1;HPM_P2
2023/03/05 00:01:43;;;;;;;26.40;11.77;;;;;;;6.80;92.52;94172.31;5148421;27;20192;-79
2023/03/05 00:04:13;;;;;;;22.60;11.32;;;;;;;6.84;92.16;94167.88;5138978;27;20204;-78
2023/03/05 00:06:40;;;;;;;21.35;10.32;;;;;;;6.76;91.98;94161.38;5140563;27;20639;-78
2023/03/05 00:09:07;;;;;;;23.73;10.38;;;;;;;6.59;92.58;94160.56;5146355;27;20284;-78
2023/03/05 00:11:34;;;;;;;27.63;11.73;;;;;;;6.56;92.57;94159.28;5144976;27;20208;-80
2023/03/05 00:14:02;;;;;;;23.23;10.30;;;;;;;6.60;93.08;94157.56;5139056;27;20219;-79
2023/03/05 00:16:31;;;;;;;29.00;11.68;;;;;;;6.52;93.57;94158.34;5155248;27;20248;-79
2023/03/05 00:19:00;;;;;;;28.00;12.35;;;;;;;6.50;93.95;94157.06;5148908;27;20834;-79
2023/03/05 00:21:28;;;;;;;26.58;12.15;;;;;;;6.59;93.27;94149.78;5147168;27;20204;-79
2023/03/05 00:23:56;;;;;;;24.50;11.27;;;;;;;6.62;93.57;94146.47;5140064;27;20275;-80
2023/03/05 00:26:25;;;;;;;24.23;11.85;;;;;;;6.65;93.44;94148.56;5139306;27;20209;-79
2023/03/05 00:28:52;;;;;;;25.00;10.90;;;;;;;6.62;94.17;94149.97;5144971;27;21050;-79
2023/03/05 00:31:21;;;;;;;23.30;12.13;;;;;;;6.66;94.42;94150.13;5132384;27;20671;-79
2023/03/05 00:33:51;;;;;;;24.80;10.32;;;;;;;6.69;94.28;94150.31;5143846;27;20208;-80
2023/03/05 00:36:18;;;;;;;29.67;12.20;;;;;;;6.59;95.17;94139.81;5136241;27;20312;-77
2023/03/05 00:38:45;;;;;;;29.65;11.85;;;;;;;6.54;96.30;94136.50;5139516;27;20189;-78
2023/03/05 00:41:12;;;;;;;23.65;10.25;;;;;;;6.58;94.53;94126.69;5135987;27;20197;-78
2023/03/05 00:43:38;;;;;;;27.70;12.48;;;;;;;6.70;95.02;94134.91;5141105;27;20196;-79
2023/03/05 00:46:05;;;;;;;25.77;11.02;;;;;;;6.78;94.92;94126.09;5136084;27;20274;-79
2023/03/05 00:48:32;;;;;;;24.50;11.10;;;;;;;6.90;94.18;94126.25;5134593;27;20740;-79
2023/03/05 00:51:00;;;;;;;32.97;11.77;;;;;;;6.94;92.49;94124.50;5130894;27;20201;-79
2023/03/05 00:53:27;;;;;;;24.67;12.13;;;;;;;6.91;92.72;94124.34;5140522;27;20342;-79
2023/03/05 00:55:54;;;;;;;25.95;10.90;;;;;;;6.59;90.80;94122.88;5137610;27;20231;-79
2023/03/05 00:58:21;;;;;;;24.65;10.13;;;;;;;6.51;90.18;94126.38;5141447;27;20212;-79
2023/03/05 01:00:49;;;;;;;15.13;7.30;;;;;;;6.39;88.33;94119.69;5144556;27;20294;-79
2023/03/05 01:03:16;;;;;;;26.38;10.30;;;;;;;6.32;89.54;94118.56;5140425;27;20220;-79
2023/03/05 01:05:43;;;;;;;16.02;7.72;;;;;;;6.25;88.68;94119.03;5148499;27;20273;-78
2023/03/05 01:08:11;;;;;;;18.25;9.10;;;;;;;6.24;88.38;94112.06;5141386;27;20203;-79
2023/03/05 01:10:38;;;;;;;19.42;8.85;;;;;;;6.21;87.51;94112.69;5133470;27;20254;-78
2023/03/05 01:13:05;;;;;;;22.88;8.40;;;;;;;6.22;87.15;94108.91;5130399;27;20205;-79
2023/03/05 01:15:32;;;;;;;24.17;10.38;;;;;;;6.25;86.95;94113.66;5144606;27;20232;-78
2023/03/05 01:17:59;;;;;;;16.23;7.95;;;;;;;6.21;85.18;94109.22;5130669;27;20236;-80
2023/03/05 01:20:25;;;;;;;13.40;6.93;;;;;;;6.23;84.75;94099.72;5130092;27;20205;-79
2023/03/05 01:22:52;;;;;;;17.42;8.43;;;;;;;6.20;85.22;94105.72;5142252;27;20208;-79
2023/03/05 01:25:20;;;;;;;21.40;8.52;;;;;;;6.28;86.06;94102.28;5133025;27;20308;-80
2023/03/05 01:27:47;;;;;;;18.15;7.07;;;;;;;6.30;84.36;94105.41;5130357;27;20193;-78
2023/03/05 01:30:15;;;;;;;21.70;9.05;;;;;;;6.35;84.44;94097.22;5135996;27;20873;-78
2023/03/05 01:32:42;;;;;;;17.10;7.60;;;;;;;6.26;83.53;94101.78;5138415;27;20336;-78
2023/03/05 01:35:17;;;;;;;25.27;9.30;;;;;;;6.23;83.66;94096.25;5144273;27;20663;-78
2023/03/05 01:37:44;;;;;;;14.07;6.50;;;;;;;6.18;83.08;94091.78;5130650;27;20216;-78
2023/03/05 01:40:13;;;;;;;22.70;7.63;;;;;;;6.18;83.77;94102.56;5137789;27;20204;-78
2023/03/05 01:42:45;;;;;;;20.02;8.70;;;;;;;6.18;83.79;94091.78;5137319;27;20201;-78
2023/03/05 01:45:15;;;;;;;13.02;5.85;;;;;;;6.24;82.26;94097.84;5142563;27;20445;-78
2023/03/05 01:47:42;;;;;;;15.02;7.13;;;;;;;6.18;82.79;94094.47;5144081;27;20735;-78
2023/03/05 01:50:13;;;;;;;12.02;6.65;;;;;;;6.15;82.74;94091.66;5130366;27;20250;-78
2023/03/05 01:52:43;;;;;;;18.63;7.32;;;;;;;6.10;82.99;94089.88;5146979;27;20588;-81
2023/03/05 01:55:14;;;;;;;13.75;6.47;;;;;;;6.14;82.08;94096.22;5141171;27;20536;-76
2023/03/05 01:57:46;;;;;;;6.20;3.38;;;;;;;6.12;81.70;94090.38;5144273;27;20281;-79
2023/03/05 02:00:18;;;;;;;5.22;3.05;;;;;;;6.07;81.06;94106.63;5142065;27;20658;-77
2023/03/05 02:02:47;;;;;;;16.00;5.80;;;;;;;6.11;81.60;94099.53;5136740;27;20188;-78
2023/03/05 02:05:17;;;;;;;8.23;4.72;;;;;;;6.09;80.61;94093.69;5137463;27;20193;-77
2023/03/05 02:07:44;;;;;;;10.88;3.63;;;;;;;6.03;80.74;94100.28;5144201;27;20193;-79
2023/03/05 02:10:19;;;;;;;11.25;5.93;;;;;;;6.08;80.59;94086.72;5143151;27;20609;-80
2023/03/05 02:12:49;;;;;;;20.23;8.23;;;;;;;6.06;81.00;94088.91;5143393;27;20253;-78
2023/03/05 02:15:17;;;;;;;11.15;6.00;;;;;;;6.06;80.81;94089.72;5143476;27;20228;-80
2023/03/05 02:17:44;;;;;;;11.07;5.03;;;;;;;6.05;80.37;94098.09;5137876;27;20232;-79
2023/03/05 02:20:14;;;;;;;14.07;6.57;;;;;;;6.08;80.86;94092.09;5136518;27;20667;-78
2023/03/05 02:22:42;;;;;;;15.52;6.88;;;;;;;6.07;80.85;94091.31;5141623;27;20197;-79
2023/03/05 02:25:18;;;;;;;14.68;6.75;;;;;;;6.09;81.05;94099.06;5143596;27;20767;-79
2023/03/05 02:27:52;;;;;;;10.57;5.05;;;;;;;6.07;80.32;94090.50;5142124;27;20268;-77
2023/03/05 02:30:19;;;;;;;6.93;4.32;;;;;;;6.01;79.90;94095.22;5129960;27;20604;-75
2023/03/05 02:32:46;;;;;;;17.02;7.03;;;;;;;6.08;79.87;94086.72;5143178;27;20228;-79
2023/03/05 02:35:13;;;;;;;15.32;6.95;;;;;;;6.01;79.97;94092.53;5140358;27;20421;-78
2023/03/05 02:37:39;;;;;;;17.38;7.43;;;;;;;5.99;80.50;94100.16;5129512;27;20232;-79
2023/03/05 02:40:09;;;;;;;15.30;7.22;;;;;;;5.97;80.44;94096.97;5143171;27;20205;-77
2023/03/05 02:42:37;;;;;;;19.73;7.70;;;;;;;5.93;81.25;94101.38;5144138;27;20194;-79
2023/03/05 02:45:05;;;;;;;15.48;6.88;;;;;;;5.94;81.55;94091.41;5142539;27;20229;-79
2023/03/05 02:47:32;;;;;;;15.82;6.70;;;;;;;5.94;81.37;94097.59;5143621;27;20292;-79
2023/03/05 02:49:59;;;;;;;17.45;8.45;;;;;;;5.97;81.16;94101.56;5137544;27;20222;-79
2023/03/05 02:52:27;;;;;;;18.58;7.55;;;;;;;5.96;81.71;94099.97;5134279;27;20201;-79
2023/03/05 02:54:54;;;;;;;16.48;8.07;;;;;;;6.04;81.77;94107.25;5137992;27;20280;-78
2023/03/05 02:57:22;;;;;;;13.43;6.60;;;;;;;6.01;81.82;94099.84;5135752;27;20763;-79
2023/03/05 02:59:49;;;;;;;18.13;7.88;;;;;;;6.01;81.81;94102.53;5149863;27;20204;-78
2023/03/05 03:02:16;;;;;;;14.73;6.78;;;;;;;6.00;81.77;94103.63;5150053;27;20200;-76
2023/03/05 03:04:43;;;;;;;15.52;6.72;;;;;;;6.02;81.52;94101.38;5140837;27;20753;-78
2023/03/05 03:07:10;;;;;;;16.67;7.20;;;;;;;5.97;82.01;94101.56;5143682;27;20286;-74
2023/03/05 03:09:37;;;;;;;6.22;3.88;;;;;;;5.90;81.59;94101.19;5138203;27;20249;-79
2023/03/05 03:12:04;;;;;;;17.55;7.80;;;;;;;5.84;82.53;94100.53;5149889;27;20659;-78
2023/03/05 03:14:37;;;;;;;20.65;7.18;;;;;;;5.91;82.71;94100.09;5140564;27;20241;-79
2023/03/05 03:17:04;;;;;;;22.70;8.90;;;;;;;5.95;83.23;94098.38;5145775;27;20239;-77
2023/03/05 03:19:31;;;;;;;16.30;7.72;;;;;;;5.86;83.31;94110.97;5143556;27;20662;-78
2023/03/05 03:21:58;;;;;;;21.88;8.07;;;;;;;5.77;82.87;94110.91;5139336;27;20658;-80
2023/03/05 03:24:25;;;;;;;16.85;7.60;;;;;;;5.82;82.73;94104.63;5143410;27;20250;-80
2023/03/05 03:26:52;;;;;;;19.60;8.13;;;;;;;5.79;82.77;94106.03;5145620;27;20596;-77
2023/03/05 03:29:18;;;;;;;16.80;6.43;;;;;;;5.80;82.34;94112.19;5144868;27;20256;-80
2023/03/05 03:31:46;;;;;;;18.92;7.18;;;;;;;5.69;82.40;94112.47;5135032;27;20277;-73
2023/03/05 03:34:14;;;;;;;14.00;5.63;;;;;;;5.67;82.30;94103.94;5136198;27;20475;-77
2023/03/05 03:36:41;;;;;;;18.17;7.57;;;;;;;5.74;83.00;94105.41;5146450;27;20288;-77
2023/03/05 03:39:09;;;;;;;12.57;6.10;;;;;;;5.77;82.53;94107.44;5146054;27;20192;-77
2023/03/05 03:41:36;;;;;;;12.75;5.55;;;;;;;5.71;82.90;94107.59;5147368;27;20266;-79
2023/03/05 03:44:05;;;;;;;14.88;7.25;;;;;;;5.66;82.71;94109.63;5133036;27;20201;-79
2023/03/05 03:46:33;;;;;;;11.68;6.05;;;;;;;5.64;82.65;94103.75;5140172;27;20681;-79
2023/03/05 03:49:01;;;;;;;14.77;6.93;;;;;;;5.63;82.74;94102.16;5139019;27;20201;-78
2023/03/05 03:51:28;;;;;;;16.27;7.47;;;;;;;5.66;82.85;94114.97;5146110;27;20257;-78
2023/03/05 03:53:55;;;;;;;16.73;7.88;;;;;;;5.64;82.34;94109.13;5146073;27;20650;-80
2023/03/05 03:56:21;;;;;;;12.30;5.65;;;;;;;5.59;82.76;94107.38;5140086;27;20288;-76
2023/03/05 03:58:50;;;;;;;11.25;5.60;;;;;;;5.59;82.31;94107.38;5139072;27;20224;-77
2023/03/05 04:01:16;;;;;;;16.60;7.57;;;;;;;5.54;83.08;94115.56;5145692;27;20207;-77
2023/03/05 04:03:43;;;;;;;14.75;6.93;;;;;;;5.48;83.03;94106.03;5148068;27;20263;-77
2023/03/05 04:06:13;;;;;;;15.98;7.40;;;;;;;5.44;83.37;94118.50;5144996;27;20201;-78
2023/03/05 04:08:40;;;;;;;12.30;6.15;;;;;;;5.47;83.02;94120.56;5146881;27;20196;-79
2023/03/05 04:11:07;;;;;;;14.73;6.82;;;;;;;5.50;83.28;94113.78;5132510;27;20209;-76
2023/03/05 04:13:34;;;;;;;20.60;8.80;;;;;;;5.45;82.57;94111.25;5134513;27;20266;-76
2023/03/05 04:16:00;;;;;;;18.67;7.32;;;;;;;5.49;82.51;94122.94;5143245;27;20281;-78
2023/03/05 04:18:27;;;;;;;18.52;6.85;;;;;;;5.44;82.30;94125.78;5132399;27;20240;-78
2023/03/05 04:20:54;;;;;;;18.58;8.85;;;;;;;5.40;83.02;94117.53;5141639;27;20204;-77
2023/03/05 04:23:22;;;;;;;16.58;6.72;;;;;;;5.32;83.40;94113.72;5136389;27;20254;-77
2023/03/05 04:25:49;;;;;;;18.65;8.60;;;;;;;5.31;83.50;94116.69;5141430;27;20686;-78
2023/03/05 04:28:16;;;;;;;23.65;8.15;;;;;;;5.42;83.59;94109.97;5149005;27;20197;-79
2023/03/05 04:30:43;;;;;;;23.25;9.35;;;;;;;5.36;84.13;94114.66;5141649;27;20230;-78
2023/03/05 04:33:10;;;;;;;20.77;8.27;;;;;;;5.36;83.40;94120.03;5149786;27;20254;-78
2023/03/05 04:35:37;;;;;;;20.67;8.18;;;;;;;5.42;83.25;94118.03;5131940;27;20200;-77
2023/03/05 04:38:04;;;;;;;27.20;9.95;;;;;;;5.40;83.63;94111.38;5145326;27;20228;-78
2023/03/05 04:40:32;;;;;;;26.52;9.85;;;;;;;5.35;83.68;94115.75;5131570;27;20656;-76
2023/03/05 04:42:59;;;;;;;21.73;9.88;;;;;;;5.34;83.98;94116.84;5145827;27;20197;-78
2023/03/05 04:45:25;;;;;;;15.73;5.70;;;;;;;5.33;83.67;94106.41;5142241;27;20204;-77
2023/03/05 04:47:52;;;;;;;10.95;5.28;;;;;;;5.29;83.68;94102.78;5138500;27;20208;-78
2023/03/05 04:50:19;;;;;;;14.13;6.72;;;;;;;5.32;83.63;94102.19;5141933;27;20790;-78
2023/03/05 04:52:46;;;;;;;24.33;8.65;;;;;;;5.25;83.45;94107.19;5145051;27;20273;-77
2023/03/05 04:55:14;;;;;;;12.95;7.18;;;;;;;5.20;83.71;94104.59;5131103;27;20380;-78
2023/03/05 04:57:42;;;;;;;16.17;8.40;;;;;;;5.21;83.30;94101.63;5135818;27;20237;-78
2023/03/05 05:00:13;;;;;;;13.13;6.57;;;;;;;5.32;82.55;94102.19;5152011;27;20245;-75
2023/03/05 05:02:41;;;;;;;19.38;7.93;;;;;;;5.20;83.11;94099.25;5137702;27;20381;-77
2023/03/05 05:05:08;;;;;;;15.05;7.25;;;;;;;5.22;82.41;94105.09;5152394;27;20303;-77
2023/03/05 05:07:35;;;;;;;14.77;7.22;;;;;;;5.28;82.82;94107.38;5138110;27;20196;-76
2023/03/05 05:10:02;;;;;;;24.95;9.10;;;;;;;5.32;82.98;94110.25;5138968;27;20200;-79
2023/03/05 05:12:29;;;;;;;24.40;9.80;;;;;;;5.34;82.87;94103.44;5146201;27;20200;-77
2023/03/05 05:14:58;;;;;;;14.02;7.40;;;;;;;5.30;82.11;94115.13;5130902;27;20638;-77
2023/03/05 05:17:26;;;;;;;20.73;7.25;;;;;;;5.22;81.57;94113.94;5139144;27;20235;-80
2023/03/05 05:19:53;;;;;;;14.13;5.88;;;;;;;5.12;81.36;94124.16;5130844;27;20249;-79
2023/03/05 05:22:20;;;;;;;20.98;8.23;;;;;;;5.22;80.22;94123.88;5145179;27;20201;-78
2023/03/05 05:24:47;;;;;;;15.52;7.47;;;;;;;5.32;80.56;94112.91;5144551;27;20950;-80
2023/03/05 05:27:13;;;;;;;13.68;6.15;;;;;;;5.40;80.40;94114.06;5131548;27;20201;-79
2023/03/05 05:29:40;;;;;;;17.90;7.72;;;;;;;5.58;79.98;94115.75;5144954;27;20200;-78
2023/03/05 05:32:09;;;;;;;15.98;6.53;;;;;;;5.55;79.13;94116.34;5144620;27;20201;-76
2023/03/05 05:34:35;;;;;;;18.33;7.28;;;;;;;5.59;78.98;94117.34;5130879;27;20261;-77
2023/03/05 05:37:02;;;;;;;14.18;7.13;;;;;;;5.56;78.81;94118.75;5131207;27;20205;-79
2023/03/05 05:39:29;;;;;;;20.63;6.88;;;;;;;5.57;78.54;94120.31;5143297;27;20256;-79
2023/03/05 05:41:56;;;;;;;18.45;6.78;;;;;;;5.67;78.33;94120.06;5139102;27;20214;-79
2023/03/05 05:44:23;;;;;;;15.60;6.97;;;;;;;5.72;77.39;94127.19;5137897;27;20234;-77
2023/03/05 05:46:50;;;;;;;16.10;6.95;;;;;;;5.82;76.64;94126.13;5143183;27;20677;-78
2023/03/05 05:49:18;;;;;;;20.98;7.03;;;;;;;5.97;76.20;94121.16;5144876;27;20761;-78
2023/03/05 05:51:45;;;;;;;13.07;5.78;;;;;;;5.97;75.46;94107.72;5139733;27;20204;-77
2023/03/05 05:54:13;;;;;;;12.40;5.75;;;;;;;6.30;74.70;94121.56;5137559;27;20256;-72
2023/03/05 05:56:40;;;;;;;12.25;5.97;;;;;;;6.57;74.60;94125.88;5142658;27;20667;-74
2023/03/05 05:59:07;;;;;;;16.88;6.03;;;;;;;6.95;75.59;94126.09;5145966;27;20276;-74
2023/03/05 06:01:34;;;;;;;14.88;6.15;;;;;;;7.33;75.23;94137.00;5141922;27;20193;-75
2023/03/05 06:04:02;;;;;;;11.68;4.78;;;;;;;7.23;71.25;94131.16;5143960;27;20722;-75
2023/03/05 06:06:30;;;;;;;15.30;6.60;;;;;;;7.22;74.00;94132.25;5136671;27;20675;-74
2023/03/05 06:08:57;;;;;;;16.85;7.15;;;;;;;7.34;69.86;94132.41;5132727;27;20211;-74
2023/03/05 06:11:24;;;;;;;13.55;6.18;;;;;;;7.77;70.57;94130.41;5141118;27;20200;-74
2023/03/05 06:13:51;;;;;;;15.85;6.00;;;;;;;7.92;70.57;94122.91;5129833;27;20209;-75
2023/03/05 06:16:19;;;;;;;14.85;6.10;;;;;;;7.52;67.11;94128.56;5139956;27;20604;-76
2023/03/05 06:18:46;;;;;;;18.45;6.85;;;;;;;7.12;67.71;94131.47;5139109;27;20258;-75
2023/03/05 06:21:15;;;;;;;15.80;7.13;;;;;;;6.84;68.80;94140.16;5130173;27;20281;-77
2023/03/05 06:23:46;;;;;;;11.07;5.75;;;;;;;7.29;67.34;94136.03;5143270;27;20875;-76
2023/03/05 06:26:16;;;;;;;14.68;6.28;;;;;;;7.73;66.26;94134.06;5141505;27;20200;-77
2023/03/05 06:28:43;;;;;;;11.70;3.63;;;;;;;7.37;65.59;94148.72;5130346;27;20616;-76
2023/03/05 06:31:11;;;;;;;10.43;4.80;;;;;;;7.12;65.74;94147.63;5131757;27;20649;-77
2023/03/05 06:33:39;;;;;;;13.40;6.03;;;;;;;7.21;66.17;94149.53;5137580;27;20204;-78
2023/03/05 06:36:07;;;;;;;11.00;4.70;;;;;;;7.05;65.77;94147.31;5137031;27;20201;-74
2023/03/05 06:38:34;;;;;;;13.57;6.43;;;;;;;7.02;65.90;94147.94;5142694;27;20260;-77
2023/03/05 06:41:04;;;;;;;25.15;7.70;;;;;;;7.23;65.76;94152.72;5129387;27;20201;-77
2023/03/05 06:43:32;;;;;;;11.57;5.60;;;;;;;7.37;64.76;94148.72;5129763;27;20193;-79
2023/03/05 06:46:03;;;;;;;11.93;5.55;;;;;;;7.10;64.55;94157.94;5140722;27;20197;-78
2023/03/05 06:48:30;;;;;;;14.60;5.63;;;;;;;7.20;64.13;94156.03;5138047;27;20652;-77
2023/03/05 06:50:56;;;;;;;12.57;5.50;;;;;;;7.37;63.92;94147.94;5150514;27;20245;-78
2023/03/05 06:53:24;;;;;;;10.85;4.93;;;;;;;7.29;63.34;94151.41;5141221;27;20208;-78
2023/03/05 06:55:51;;;;;;;9.73;4.97;;;;;;;7.99;61.96;94136.69;5143092;27;20323;-78
2023/03/05 06:58:19;;;;;;;9.45;4.88;;;;;;;8.64;60.13;94140.84;5129375;27;20281;-82
2023/03/05 07:00:46;;;;;;;9.98;4.18;;;;;;;8.51;59.94;94129.94;5128989;27;20675;-80
2023/03/05 07:03:13;;;;;;;13.02;6.05;;;;;;;8.41;59.19;94143.03;5129148;27;20635;-78
2023/03/05 07:05:40;;;;;;;15.50;6.60;;;;;;;8.64;59.38;94140.84;5143405;27;20281;-74
2023/03/05 07:08:07;;;;;;;14.68;5.28;;;;;;;8.93;57.91;94150.81;5139887;27;20195;-77
2023/03/05 07:10:38;;;;;;;10.70;5.40;;;;;;;8.68;58.21;94147.16;5136194;27;20192;-76
2023/03/05 07:13:05;;;;;;;15.32;6.53;;;;;;;9.19;58.62;94141.41;5138981;27;20199;-77
2023/03/05 07:15:34;;;;;;;13.73;6.05;;;;;;;9.19;56.39;94141.41;5129097;28;20245;-76
2023/03/05 07:18:01;;;;;;;14.27;5.57;;;;;;;8.70;57.53;94145.72;5129151;28;20221;-75
2023/03/05 07:20:28;;;;;;;12.65;7.43;;;;;;;8.88;57.95;94146.41;5142572;27;20732;-76
2023/03/05 07:22:55;;;;;;;16.00;8.02;;;;;;;8.76;57.57;94141.69;5140774;27;20211;-75
2023/03/05 07:25:23;;;;;;;17.70;7.97;;;;;;;8.81;58.82;94143.44;5135086;27;20192;-78
2023/03/05 07:27:50;;;;;;;16.52;7.10;;;;;;;8.39;59.55;94146.06;5137860;27;20188;-78
2023/03/05 07:30:18;;;;;;;9.60;5.32;;;;;;;8.64;58.61;94146.22;5137958;27;20212;-80
2023/03/05 07:32:46;;;;;;;21.52;8.80;;;;;;;8.80;58.78;94150.75;5135935;27;20208;-78
2023/03/05 07:35:15;;;;;;;15.57;7.13;;;;;;;8.68;59.39;94152.56;5139590;27;20250;-80
2023/03/05 07:37:42;;;;;;;14.43;6.75;;;;;;;8.22;59.99;94151.50;5140108;27;20246;-82
2023/03/05 07:40:10;;;;;;;12.18;6.95;;;;;;;7.84;61.80;94141.47;5138965;27;20201;-75
2023/03/05 07:42:37;;;;;;;16.73;8.40;;;;;;;8.10;61.50;94143.28;5138264;27;20193;-78
2023/03/05 07:45:04;;;;;;;15.85;7.22;;;;;;;8.08;61.32;94140.13;5137335;27;20527;-77
2023/03/05 07:47:31;;;;;;;15.27;7.18;;;;;;;7.73;63.00;94150.25;5133555;27;20205;-81
2023/03/05 07:49:59;;;;;;;14.25;5.50;;;;;;;7.57;63.16;94152.66;5129327;28;20204;-76
2023/03/05 07:52:26;;;;;;;17.75;7.75;;;;;;;7.62;63.27;94141.72;5147015;27;20196;-79
2023/03/05 07:54:52;;;;;;;12.23;5.85;;;;;;;7.59;63.24;94150.44;5142402;27;20212;-80
2023/03/05 07:57:19;;;;;;;22.13;9.43;;;;;;;7.99;63.34;94142.88;5137680;27;20613;-79
2023/03/05 07:59:46;;;;;;;16.63;8.30;;;;;;;7.82;63.25;94143.72;5150161;27;20231;-79
2023/03/05 08:02:14;;;;;;;19.25;9.32;;;;;;;7.95;62.78;94146.53;5135328;27;20636;-78
2023/03/05 08:04:41;;;;;;;17.75;8.90;;;;;;;7.93;62.85;94146.03;5144688;27;20265;-80
2023/03/05 08:07:10;;;;;;;17.80;9.27;;;;;;;8.31;63.04;94152.25;5146304;27;20196;-79
2023/03/05 08:09:36;;;;;;;15.10;7.20;;;;;;;7.94;62.83;94155.72;5142308;27;20224;-78
2023/03/05 08:12:03;;;;;;;21.48;8.27;;;;;;;8.12;63.30;94154.56;5147248;27;20223;-80
2023/03/05 08:14:30;;;;;;;17.92;7.03;;;;;;;7.85;63.55;94153.84;5136706;27;20299;-81
2023/03/05 08:16:59;;;;;;;21.95;10.25;;;;;;;8.18;63.03;94145.19;5138779;27;20193;-79
2023/03/05 08:19:30;;;;;;;16.95;7.85;;;;;;;7.84;63.79;94151.47;5124476;27;20266;-82
2023/03/05 08:21:56;;;;;;;25.88;9.90;;;;;;;8.09;63.46;94147.91;5139830;27;20199;-80
2023/03/05 08:24:28;;;;;;;20.42;9.32;;;;;;;8.02;64.14;94150.31;5145135;27;20237;-78
2023/03/05 08:26:55;;;;;;;16.17;7.40;;;;;;;8.09;63.36;94147.09;5137221;27;20288;-79
2023/03/05 08:29:22;;;;;;;18.80;7.95;;;;;;;8.30;62.84;94153.38;5153041;27;20706;-82
2023/03/05 08:31:49;;;;;;;16.88;7.40;;;;;;;8.25;62.71;94140.06;5148983;27;20200;-78
2023/03/05 08:34:17;;;;;;;20.50;8.77;;;;;;;8.12;63.23;94141.06;5135003;27;20200;-82
2023/03/05 08:36:44;;;;;;;14.70;7.45;;;;;;;8.12;64.19;94143.78;5140537;27;20200;-82
2023/03/05 08:39:11;;;;;;;21.60;8.75;;;;;;;8.11;63.32;94134.09;5144433;27;20224;-80
2023/03/05 08:41:39;;;;;;;20.17;8.43;;;;;;;8.41;63.24;94138.44;5155275;27;20249;-83
2023/03/05 08:44:06;;;;;;;18.38;8.90;;;;;;;8.47;62.97;94137.09;5138691;27;20201;-81
2023/03/05 08:46:33;;;;;;;19.23;8.68;;;;;;;8.68;62.89;94136.38;5139022;27;20196;-81
2023/03/05 08:49:00;;;;;;;23.92;8.95;;;;;;;8.87;61.68;94140.22;5141072;27;20201;-78
2023/03/05 08:51:27;;;;;;;19.75;9.50;;;;;;;8.93;60.92;94140.81;5135274;27;20205;-80
2023/03/05 08:53:56;;;;;;;17.45;8.27;;;;;;;9.28;59.93;94125.13;5131113;27;20213;-78
2023/03/05 08:56:25;;;;;;;22.73;9.80;;;;;;;9.49;59.12;94122.38;5133989;27;20246;-78
2023/03/05 08:58:53;;;;;;;21.13;8.55;;;;;;;9.79;58.18;94110.31;5131085;27;20252;-80
2023/03/05 09:01:21;;;;;;;32.35;10.63;;;;;;;9.94;59.44;94109.66;5134308;27;20228;-77
2023/03/05 09:03:48;;;;;;;22.98;9.15;;;;;;;9.76;57.47;94102.84;5139453;27;20272;-77
2023/03/05 09:06:58;;;;;;;23.40;11.90;;;;;;;9.55;56.99;94115.66;5137055;27;20279;-81
2023/03/05 09:09:24;;;;;;;19.98;7.20;;;;;;;9.70;57.29;94101.50;5141928;27;20196;-78
2023/03/05 09:11:52;;;;;;;19.42;9.98;;;;;;;9.66;55.49;94106.00;5131910;27;20205;-78
2023/03/05 09:14:20;;;;;;;16.45;7.15;;;;;;;9.71;55.68;94103.06;5143403;27;20770;-78
2023/03/05 09:16:47;;;;;;;27.52;14.18;;;;;;;9.84;55.55;94101.94;5147564;27;20201;-80
2023/03/05 09:19:14;;;;;;;17.75;9.77;;;;;;;10.03;54.59;94106.03;5131335;27;20220;-78
2023/03/05 09:21:43;;;;;;;21.88;10.18;;;;;;;9.94;55.41;94101.53;5143262;27;20199;-77
2023/03/05 09:24:10;;;;;;;24.45;9.90;;;;;;;9.66;56.26;94100.59;5143014;27;20194;-76
2023/03/05 09:26:37;;;;;;;23.98;10.27;;;;;;;9.99;54.18;94098.59;5136335;27;20197;-79
2023/03/05 09:29:06;;;;;;;22.27;9.68;;;;;;;9.82;54.17;94096.13;5144471;27;20781;-78
2023/03/05 09:31:34;;;;;;;22.65;10.13;;;;;;;10.07;53.50;94088.03;5140145;27;20279;-79
2023/03/05 09:34:01;;;;;;;15.75;7.38;;;;;;;10.20;51.81;94086.94;5141351;27;20197;-79
2023/03/05 09:36:30;;;;;;;16.98;8.43;;;;;;;10.40;51.23;94086.00;5137078;27;20598;-79
2023/03/05 09:38:57;;;;;;;21.52;8.57;;;;;;;10.31;50.38;94093.47;5141837;27;20291;-77
2023/03/05 09:41:36;;;;;;;15.45;7.68;;;;;;;10.62;51.78;94082.84;5146149;27;20549;-79
2023/03/05 09:44:18;;;;;;;18.98;7.00;;;;;;;10.76;51.11;94084.41;5141105;27;20197;-78
2023/03/05 09:46:53;;;;;;;18.92;8.18;;;;;;;10.48;52.26;94087.81;5138788;27;20208;-77
2023/03/05 09:49:30;;;;;;;22.95;13.40;;;;;;;10.20;51.95;94076.09;5135986;27;20197;-78
2023/03/05 09:52:05;;;;;;;18.23;8.50;;;;;;;9.95;51.54;94076.06;5130160;27;20714;-78
2023/03/05 09:54:38;;;;;;;15.85;8.70;;;;;;;10.23;52.14;94072.72;5140064;27;20275;-78
2023/03/05 09:57:10;;;;;;;20.58;8.02;;;;;;;10.56;51.67;94067.94;5140316;27;20646;-78
2023/03/05 09:59:46;;;;;;;15.63;7.75;;;;;;;10.53;50.01;94065.91;5133818;27;20228;-75
2023/03/05 10:02:19;;;;;;;13.73;7.15;;;;;;;10.26;49.10;94053.06;5134228;27;20257;-77
2023/03/05 10:04:52;;;;;;;14.38;7.43;;;;;;;10.23;49.30;94064.59;5140058;27;20204;-76
2023/03/05 10:07:23;;;;;;;13.45;6.60;;;;;;;9.61;49.35;94060.22;5133018;27;20246;-75
2023/03/05 10:09:55;;;;;;;9.10;5.05;;;;;;;9.72;49.77;94055.16;5141874;27;20244;-78
2023/03/05 10:12:27;;;;;;;11.98;5.70;;;;;;;9.71;49.85;94059.78;5150579;27;20672;-76
2023/03/05 10:14:54;;;;;;;9.27;4.55;;;;;;;9.74;49.41;94064.53;5136136;27;20323;-73
2023/03/05 10:17:50;;;;;;;12.88;6.10;;;;;;;9.23;51.06;94045.03;5142990;27;20613;-74
2023/03/05 10:20:40;;;;;;;17.25;8.07;;;;;;;9.57;52.82;94045.78;5135193;27;20224;-74
2023/03/05 10:23:25;;;;;;;9.98;5.22;;;;;;;10.21;50.94;94034.38;5141154;27;20196;-76
2023/03/05 10:26:02;;;;;;;13.68;7.72;;;;;;;9.85;51.86;94027.78;5130843;27;20293;-80
2023/03/05 10:28:39;;;;;;;13.57;6.78;;;;;;;9.93;51.76;94035.03;5143760;27;20253;-73
2023/03/05 10:31:33;;;;;;;12.13;6.82;;;;;;;10.19;50.75;94014.97;5129808;27;20201;-77
2023/03/05 10:34:26;;;;;;;11.10;5.50;;;;;;;9.98;50.90;94021.25;5137610;27;20611;-74
2023/03/05 10:37:11;;;;;;;22.42;9.23;;;;;;;10.92;50.16;94004.78;5136689;27;20247;-77
2023/03/05 10:39:54;;;;;;;10.90;5.80;;;;;;;10.19;50.37;94015.78;5136746;27;20285;-73
2023/03/05 10:42:28;;;;;;;10.90;6.38;;;;;;;10.10;49.68;93998.06;5139052;27;20193;-76
2023/03/05 10:44:57;;;;;;;13.30;6.38;;;;;;;9.97;49.08;94014.28;5149604;27;20249;-78
2023/03/05 10:47:29;;;;;;;9.98;5.72;;;;;;;10.33;49.50;94007.28;5136681;27;20869;-80
2023/03/05 10:49:58;;;;;;;12.50;6.40;;;;;;;10.69;47.45;93993.66;5130557;27;20617;-79
2023/03/05 10:52:31;;;;;;;13.10;7.10;;;;;;;10.91;48.15;93991.56;5131099;27;20540;-80
2023/03/05 10:54:58;;;;;;;10.07;5.20;;;;;;;10.71;48.56;93982.50;5147495;27;20188;-80
2023/03/05 10:57:26;;;;;;;15.30;5.85;;;;;;;10.93;48.28;93984.66;5150525;27;20687;-83
2023/03/05 10:59:54;;;;;;;11.10;5.85;;;;;;;10.68;48.56;93986.66;5130997;27;20241;-79
2023/03/05 11:02:22;;;;;;;11.75;4.95;;;;;;;10.64;48.38;93977.66;5132820;27;20205;-76
2023/03/05 11:04:50;;;;;;;11.38;6.10;;;;;;;10.74;49.73;93970.19;5150287;27;20192;-74
2023/03/05 11:07:33;;;;;;;12.00;5.22;;;;;;;10.57;48.73;93960.41;5133503;27;20197;-80
2023/03/05 11:10:06;;;;;;;12.50;6.22;;;;;;;10.26;48.32;93977.28;5129281;27;20225;-75
2023/03/05 11:12:40;;;;;;;11.32;4.80;;;;;;;9.97;49.80;93971.00;5144233;27;20196;-78
2023/03/05 11:15:25;;;;;;;17.73;10.60;;;;;;;10.41;47.98;93965.75;5129256;27;20708;-75
2023/03/05 11:18:15;;;;;;;5.63;2.90;;;;;;;10.34;48.14;93962.84;5138420;27;20635;-74
2023/03/05 11:20:42;;;;;;;14.77;6.80;;;;;;;10.36;48.64;93966.00;5140205;27;21007;-79
2023/03/05 11:23:13;;;;;;;14.75;8.50;;;;;;;10.17;48.25;93957.66;5137340;27;20248;-78
2023/03/05 11:25:56;;;;;;;15.63;4.88;;;;;;;9.81;50.21;93958.50;5129335;27;20209;-76
2023/03/05 11:28:25;;;;;;;13.23;6.72;;;;;;;10.03;49.59;93962.66;5128401;27;20242;-85
2023/03/05 11:30:59;;;;;;;10.85;6.38;;;;;;;10.31;50.44;93948.09;5137637;27;20228;-76
2023/03/05 11:33:26;;;;;;;15.48;7.85;;;;;;;10.30;50.44;93946.50;5134973;27;20189;-80
2023/03/05 11:36:11;;;;;;;15.73;7.82;;;;;;;10.41;49.92;93946.81;5139443;27;20197;-75
2023/03/05 11:38:49;;;;;;;9.02;4.03;;;;;;;10.19;50.68;93936.50;5136540;27;20237;-75
2023/03/05 11:41:20;;;;;;;12.93;5.72;;;;;;;9.74;50.75;93944.75;5138226;27;20216;-74